Terminal Aerodrome Forecast
Issued by NWS Jackson, MS

Home | Current Version | Previous Version | Text Only | Print | Product List | Glossary On
Versions: 1 2 3 4 5 6 7 8 9 10 11 12 13 14 15 16 17 18 19 20 21 22 23 24
000
FTUS44 KMEG 270535
TAFTUP
TAF
KTUP 270535Z 2706/2806 20003KT P6SM SCT250
     FM270900 20003KT 6SM BR FEW009 SCT250
     FM271100 21005KT P6SM VCSH SCT015 OVC100
      TEMPO 2711/2715 BKN015
     FM271600 21006KT P6SM VCTS BKN035CB OVC100
     FM272300 19004KT P6SM SCT040 BKN150=

USA.gov is the U.S. government's official web portal to all federal, state and local government web resources and services.